createdAt,value
2023-01-11T00:00:16.169Z,0
2023-01-11T00:01:16.166Z,0
2023-01-11T00:02:16.241Z,0
2023-01-11T00:03:16.169Z,0
2023-01-11T00:04:16.229Z,0
2023-01-11T00:05:16.168Z,0
2023-01-11T00:06:16.174Z,0
2023-01-11T00:07:16.169Z,0
2023-01-11T00:08:16.181Z,0
2023-01-11T00:09:16.199Z,0
2023-01-11T00:10:16.180Z,0
2023-01-11T00:11:16.178Z,0
2023-01-11T00:12:16.179Z,0
2023-01-11T00:13:16.176Z,0
2023-01-11T00:14:16.177Z,0
2023-01-11T00:15:16.181Z,0
2023-01-11T00:16:16.224Z,0
2023-01-11T00:17:16.183Z,0
2023-01-11T00:18:16.178Z,0
2023-01-11T00:19:16.181Z,0
2023-01-11T00:20:16.181Z,0
2023-01-11T00:21:16.180Z,0
2023-01-11T00:22:16.181Z,0
2023-01-11T00:23:16.186Z,0
2023-01-11T00:24:16.184Z,0
2023-01-11T00:25:16.214Z,0
2023-01-11T00:26:16.187Z,0
2023-01-11T00:27:16.186Z,0
2023-01-11T00:28:16.188Z,0
2023-01-11T00:29:16.204Z,0
2023-01-11T00:30:16.192Z,0
2023-01-11T00:31:16.249Z,0
2023-01-11T00:32:16.190Z,0
2023-01-11T00:33:16.190Z,0
2023-01-11T00:34:16.188Z,0
2023-01-11T00:35:16.191Z,0
2023-01-11T00:36:16.190Z,0
2023-01-11T00:37:16.202Z,0
2023-01-11T00:38:16.193Z,0
2023-01-11T00:39:16.191Z,0
2023-01-11T00:40:16.197Z,0
2023-01-11T00:41:16.222Z,0
2023-01-11T00:42:16.198Z,0
2023-01-11T00:43:16.205Z,0
2023-01-11T00:44:16.198Z,0
2023-01-11T00:45:16.201Z,0
2023-01-11T00:46:16.295Z,0
2023-01-11T00:47:16.203Z,0
2023-01-11T00:48:16.203Z,0
2023-01-11T00:49:16.215Z,0
2023-01-11T00:50:16.202Z,0
2023-01-11T00:51:16.206Z,0
2023-01-11T00:52:16.205Z,0
2023-01-11T00:53:16.207Z,0
2023-01-11T00:54:16.205Z,0
2023-01-11T00:55:16.205Z,0
2023-01-11T00:56:16.207Z,0
2023-01-11T00:57:16.248Z,0
2023-01-11T00:58:16.210Z,0
2023-01-11T00:59:16.210Z,0
2023-01-11T01:00:16.211Z,0
2023-01-11T01:01:16.237Z,0
2023-01-11T01:02:16.232Z,0
2023-01-11T01:03:16.225Z,0
2023-01-11T01:04:16.208Z,0
2023-01-11T01:05:16.216Z,0
2023-01-11T01:06:16.210Z,0
2023-01-11T01:07:16.224Z,0
2023-01-11T01:08:16.211Z,0
2023-01-11T01:09:16.215Z,0
2023-01-11T01:10:16.239Z,0
2023-01-11T01:11:16.214Z,0
2023-01-11T01:12:16.212Z,0
2023-01-11T01:13:16.256Z,0
2023-01-11T01:14:16.211Z,0
2023-01-11T01:15:16.216Z,0
2023-01-11T01:16:16.233Z,0
2023-01-11T01:17:16.214Z,0
2023-01-11T01:18:16.214Z,0
2023-01-11T01:19:16.215Z,0
2023-01-11T01:20:16.220Z,0
2023-01-11T01:21:16.213Z,0
2023-01-11T01:22:16.213Z,0
2023-01-11T01:23:16.213Z,0
2023-01-11T01:24:16.212Z,0
2023-01-11T01:25:16.218Z,0
2023-01-11T01:26:16.215Z,0
2023-01-11T01:27:16.214Z,0
2023-01-11T01:28:16.226Z,0
2023-01-11T01:29:16.245Z,0
2023-01-11T01:30:16.233Z,0
2023-01-11T01:31:16.344Z,0
2023-01-11T01:32:16.220Z,0
2023-01-11T01:33:16.221Z,0
2023-01-11T01:34:16.232Z,0
2023-01-11T01:35:16.230Z,0
2023-01-11T01:36:16.229Z,0
2023-01-11T01:37:16.229Z,0
2023-01-11T01:38:16.240Z,0
2023-01-11T01:39:16.233Z,0
2023-01-11T01:40:16.251Z,0
2023-01-11T01:41:16.240Z,0
2023-01-11T01:42:16.242Z,0
2023-01-11T01:43:16.239Z,0
2023-01-11T01:44:16.243Z,0
2023-01-11T01:45:16.269Z,0
2023-01-11T01:46:16.269Z,0
2023-01-11T01:47:16.263Z,0
2023-01-11T01:48:16.246Z,0
2023-01-11T01:49:16.264Z,0
2023-01-11T01:50:16.252Z,0
2023-01-11T01:51:16.257Z,0
2023-01-11T01:52:16.257Z,0
2023-01-11T01:53:16.260Z,0
2023-01-11T01:54:16.261Z,0
2023-01-11T01:55:16.265Z,0
2023-01-11T01:56:16.262Z,0
2023-01-11T01:57:16.265Z,0
2023-01-11T01:58:16.305Z,0
2023-01-11T01:59:16.271Z,0
2023-01-11T02:00:16.273Z,0
2023-01-11T02:01:16.316Z,0
2023-01-11T02:02:16.278Z,0
2023-01-11T02:03:16.293Z,0
2023-01-11T02:04:16.280Z,0
2023-01-11T02:05:16.280Z,0
2023-01-11T02:06:16.285Z,0
2023-01-11T02:07:16.292Z,0
2023-01-11T02:08:16.282Z,0
2023-01-11T02:09:16.284Z,0
2023-01-11T02:10:16.294Z,0
2023-01-11T02:11:16.285Z,0
2023-01-11T02:12:16.290Z,0
2023-01-11T02:13:16.298Z,0
2023-01-11T02:14:16.298Z,0
2023-01-11T02:15:16.289Z,0
2023-01-11T02:16:16.329Z,0
2023-01-11T02:17:16.316Z,0
2023-01-11T02:18:16.290Z,0
2023-01-11T02:19:16.291Z,0
2023-01-11T02:20:16.296Z,0
2023-01-11T02:21:16.298Z,0
2023-01-11T02:22:16.300Z,0
2023-01-11T02:23:16.302Z,0
2023-01-11T02:24:16.300Z,0
2023-01-11T02:25:16.309Z,0
2023-01-11T02:26:16.313Z,0
2023-01-11T02:27:16.305Z,0
2023-01-11T02:28:16.305Z,0
2023-01-11T02:29:16.303Z,0
2023-01-11T02:30:16.303Z,0
2023-01-11T02:31:16.396Z,0
2023-01-11T02:32:16.305Z,0
2023-01-11T02:33:16.337Z,0
2023-01-11T02:34:16.304Z,0
2023-01-11T02:35:16.304Z,0
2023-01-11T02:36:16.308Z,0
2023-01-11T02:37:16.313Z,0
2023-01-11T02:38:16.311Z,0
2023-01-11T02:39:16.310Z,0
2023-01-11T02:40:16.317Z,0
2023-01-11T02:41:16.316Z,0
2023-01-11T02:42:16.319Z,0
2023-01-11T02:43:16.320Z,0
2023-01-11T02:44:16.319Z,0
2023-01-11T02:45:16.321Z,0
2023-01-11T02:46:16.329Z,0
2023-01-11T02:47:16.330Z,0
2023-01-11T02:48:16.331Z,0
2023-01-11T02:49:16.358Z,0
2023-01-11T02:50:16.341Z,0
2023-01-11T02:51:16.346Z,0
2023-01-11T02:52:16.340Z,0
2023-01-11T02:53:16.346Z,0
2023-01-11T02:54:16.341Z,0
2023-01-11T02:55:16.342Z,0
2023-01-11T02:56:16.346Z,0
2023-01-11T02:57:16.358Z,0
2023-01-11T02:58:16.363Z,0
2023-01-11T02:59:16.348Z,0
2023-01-11T03:00:16.354Z,0
2023-01-11T03:01:16.435Z,0
2023-01-11T03:02:16.352Z,0
2023-01-11T03:03:16.359Z,0
2023-01-11T03:04:16.359Z,0
2023-01-11T03:05:16.386Z,0
2023-01-11T03:06:16.364Z,0
2023-01-11T03:07:16.362Z,0
2023-01-11T03:08:16.364Z,0
2023-01-11T03:09:16.365Z,0
2023-01-11T03:10:16.366Z,0
2023-01-11T03:11:16.365Z,0
2023-01-11T03:12:16.364Z,0
2023-01-11T03:13:16.369Z,0
2023-01-11T03:14:16.375Z,0
2023-01-11T03:15:16.373Z,0
2023-01-11T03:16:16.453Z,0
2023-01-11T03:17:16.379Z,0
2023-01-11T03:18:16.390Z,0
2023-01-11T03:19:16.378Z,0
2023-01-11T03:20:16.383Z,0
2023-01-11T03:21:16.408Z,0
2023-01-11T03:22:16.388Z,0
2023-01-11T03:23:16.385Z,0
2023-01-11T03:24:16.392Z,0
2023-01-11T03:25:16.386Z,0
2023-01-11T03:26:16.390Z,0
2023-01-11T03:27:16.407Z,0
2023-01-11T03:28:16.398Z,0
2023-01-11T03:29:16.397Z,0
2023-01-11T03:30:16.402Z,0
2023-01-11T03:31:16.455Z,0
2023-01-11T03:32:16.409Z,0
2023-01-11T03:33:16.408Z,0
2023-01-11T03:34:16.409Z,0
2023-01-11T03:35:16.403Z,0
2023-01-11T03:36:16.411Z,0
2023-01-11T03:37:16.439Z,0
2023-01-11T03:38:16.422Z,0
2023-01-11T03:39:16.414Z,0
2023-01-11T03:40:16.420Z,0
2023-01-11T03:41:16.420Z,0
2023-01-11T03:42:16.419Z,0
2023-01-11T03:43:16.415Z,0
2023-01-11T03:44:16.418Z,0
2023-01-11T03:45:16.418Z,0
2023-01-11T03:46:16.475Z,0
2023-01-11T03:47:16.426Z,0
2023-01-11T03:48:16.418Z,0
2023-01-11T03:49:16.422Z,0
2023-01-11T03:50:16.421Z,0
2023-01-11T03:51:16.424Z,0
2023-01-11T03:52:16.427Z,0
2023-01-11T03:53:16.454Z,0
2023-01-11T03:54:16.436Z,0
2023-01-11T03:55:16.452Z,0
2023-01-11T03:56:16.431Z,0
2023-01-11T03:57:16.430Z,0
2023-01-11T03:58:16.442Z,0
2023-01-11T03:59:16.434Z,0
2023-01-11T04:00:16.438Z,0
2023-01-11T04:01:16.510Z,0
2023-01-11T04:02:16.453Z,0
2023-01-11T04:03:16.441Z,0
2023-01-11T04:04:16.510Z,0
2023-01-11T04:05:16.443Z,0
2023-01-11T04:06:16.449Z,0
2023-01-11T04:07:16.445Z,0
2023-01-11T04:08:16.449Z,0
2023-01-11T04:09:16.476Z,0
2023-01-11T04:10:16.449Z,0
2023-01-11T04:11:16.455Z,0
2023-01-11T04:12:16.452Z,0
2023-01-11T04:13:16.452Z,0
2023-01-11T04:14:16.469Z,0
2023-01-11T04:15:16.457Z,0
2023-01-11T04:16:16.473Z,0
2023-01-11T04:17:16.456Z,0
2023-01-11T04:18:16.462Z,0
2023-01-11T04:19:16.457Z,0
2023-01-11T04:20:16.457Z,0
2023-01-11T04:21:16.465Z,0
2023-01-11T04:22:16.462Z,0
2023-01-11T04:23:16.460Z,0
2023-01-11T04:24:16.462Z,0
2023-01-11T04:25:16.541Z,0
2023-01-11T04:26:16.465Z,0
2023-01-11T04:27:16.472Z,0
2023-01-11T04:28:16.469Z,0
2023-01-11T04:29:16.470Z,0
2023-01-11T04:30:16.472Z,0
2023-01-11T04:31:16.475Z,0
2023-01-11T04:32:16.471Z,0
2023-01-11T04:33:16.469Z,0
2023-01-11T04:34:16.472Z,0
2023-01-11T04:35:16.488Z,0
2023-01-11T04:36:16.473Z,0
2023-01-11T04:37:16.480Z,0
2023-01-11T04:38:16.475Z,0
2023-01-11T04:39:16.476Z,0
2023-01-11T04:40:16.474Z,0
2023-01-11T04:41:16.505Z,0
2023-01-11T04:42:16.478Z,0
2023-01-11T04:43:16.481Z,0
2023-01-11T04:44:16.478Z,0
2023-01-11T04:45:16.482Z,0
2023-01-11T04:46:16.480Z,0
2023-01-11T04:47:16.490Z,0
2023-01-11T04:48:16.493Z,0
2023-01-11T04:49:16.483Z,0
2023-01-11T04:50:16.506Z,0
2023-01-11T04:51:16.480Z,0
2023-01-11T04:52:16.485Z,0
2023-01-11T04:53:16.484Z,0
2023-01-11T04:54:16.486Z,0
2023-01-11T04:55:16.487Z,0
2023-01-11T04:56:16.491Z,0
2023-01-11T04:57:16.512Z,0
2023-01-11T04:58:16.491Z,0
2023-01-11T04:59:16.490Z,0
2023-01-11T05:00:16.519Z,0
2023-01-11T05:01:16.541Z,0
2023-01-11T05:02:16.505Z,0
2023-01-11T05:03:16.499Z,0
2023-01-11T05:04:16.532Z,0
2023-01-11T05:05:16.497Z,0
2023-01-11T05:06:16.506Z,0
2023-01-11T05:07:16.501Z,0
2023-01-11T05:08:16.501Z,0
2023-01-11T05:09:16.500Z,0
2023-01-11T05:10:16.501Z,0
2023-01-11T05:11:16.500Z,0
2023-01-11T05:12:16.503Z,0
2023-01-11T05:13:16.530Z,0
2023-01-11T05:14:16.513Z,0
2023-01-11T05:15:16.507Z,0
2023-01-11T05:16:16.509Z,0
2023-01-11T05:17:16.519Z,0
2023-01-11T05:18:16.511Z,0
2023-01-11T05:19:16.510Z,0
2023-01-11T05:20:16.524Z,0
2023-01-11T05:21:16.513Z,0
2023-01-11T05:22:16.513Z,0
2023-01-11T05:23:16.544Z,0
2023-01-11T05:24:16.525Z,0
2023-01-11T05:25:16.515Z,0
2023-01-11T05:26:16.514Z,0
2023-01-11T05:27:16.515Z,0
2023-01-11T05:28:16.522Z,0
2023-01-11T05:29:16.583Z,0
2023-01-11T05:30:16.521Z,0
2023-01-11T05:31:16.557Z,0
2023-01-11T05:32:16.520Z,0
2023-01-11T05:33:16.520Z,0
2023-01-11T05:34:16.521Z,0
2023-01-11T05:35:16.523Z,0
2023-01-11T05:36:16.522Z,0
2023-01-11T05:37:16.523Z,0
2023-01-11T05:38:16.523Z,0
2023-01-11T05:39:16.528Z,0
2023-01-11T05:40:16.538Z,0
2023-01-11T05:41:16.528Z,0
2023-01-11T05:42:16.523Z,0
2023-01-11T05:43:16.526Z,0
2023-01-11T05:44:16.532Z,0
2023-01-11T05:45:16.553Z,0
2023-01-11T05:46:16.593Z,0
2023-01-11T05:47:16.530Z,0
2023-01-11T05:48:16.534Z,0
2023-01-11T05:49:16.532Z,0
2023-01-11T05:50:16.530Z,0
2023-01-11T05:51:16.529Z,0
2023-01-11T05:52:16.528Z,0
2023-01-11T05:53:16.530Z,0
2023-01-11T05:54:16.542Z,0
2023-01-11T05:55:16.533Z,0
2023-01-11T05:56:16.531Z,0
2023-01-11T05:57:16.539Z,0
2023-01-11T05:58:16.545Z,0
2023-01-11T05:59:16.533Z,0
2023-01-11T06:00:16.539Z,0
2023-01-11T06:01:16.553Z,0
2023-01-11T06:02:16.576Z,0
2023-01-11T06:03:16.561Z,0
2023-01-11T06:04:16.532Z,0
2023-01-11T06:05:16.547Z,0
2023-01-11T06:06:16.529Z,0
2023-01-11T06:07:16.533Z,0
2023-01-11T06:08:16.537Z,0
2023-01-11T06:09:16.537Z,0
2023-01-11T06:10:16.533Z,0
2023-01-11T06:11:16.533Z,0
2023-01-11T06:12:16.538Z,0
2023-01-11T06:13:16.549Z,0
2023-01-11T06:14:16.535Z,0
2023-01-11T06:15:16.536Z,0
2023-01-11T06:16:16.565Z,0
2023-01-11T06:17:16.561Z,0
2023-01-11T06:18:16.533Z,0
2023-01-11T06:19:16.536Z,0
2023-01-11T06:20:16.536Z,0
2023-01-11T06:21:16.543Z,0
2023-01-11T06:22:16.542Z,0
2023-01-11T06:23:16.533Z,0
2023-01-11T06:24:16.534Z,0
2023-01-11T06:25:16.536Z,0
2023-01-11T06:26:16.610Z,0
2023-01-11T06:27:16.542Z,0
2023-01-11T06:28:16.544Z,0
2023-01-11T06:29:16.537Z,0
2023-01-11T06:30:16.539Z,0
2023-01-11T06:31:17.728Z,0
2023-01-11T06:32:16.545Z,0
2023-01-11T06:33:16.563Z,2
2023-01-11T06:34:16.540Z,2
2023-01-11T06:35:16.546Z,2
2023-01-11T06:36:16.572Z,2
2023-01-11T06:37:16.543Z,2
2023-01-11T06:38:16.546Z,5
2023-01-11T06:39:16.547Z,5
2023-01-11T06:40:16.546Z,5
2023-01-11T06:41:16.550Z,5
2023-01-11T06:42:16.549Z,5
2023-01-11T06:43:16.545Z,11
2023-01-11T06:44:16.542Z,11
2023-01-11T06:45:16.545Z,11
2023-01-11T06:46:16.624Z,11
2023-01-11T06:47:16.563Z,11
2023-01-11T06:48:16.549Z,20
2023-01-11T06:49:16.576Z,20
2023-01-11T06:50:16.557Z,20
2023-01-11T06:51:16.561Z,20
2023-01-11T06:52:16.556Z,20
2023-01-11T06:53:16.584Z,30
2023-01-11T06:54:16.556Z,30
2023-01-11T06:55:16.561Z,30
2023-01-11T06:56:16.558Z,30
2023-01-11T06:57:16.584Z,30
2023-01-11T06:58:16.565Z,44
2023-01-11T06:59:16.559Z,44
2023-01-11T07:00:16.572Z,44
2023-01-11T07:01:16.701Z,44
2023-01-11T07:02:16.573Z,44
2023-01-11T07:03:16.572Z,66
2023-01-11T07:04:16.573Z,66
2023-01-11T07:05:18.935Z,66
2023-01-11T07:06:16.578Z,66
2023-01-11T07:07:16.583Z,66
2023-01-11T07:08:16.586Z,113
2023-01-11T07:09:16.582Z,113
2023-01-11T07:10:16.588Z,113
2023-01-11T07:11:16.594Z,113
2023-01-11T07:12:16.586Z,113
2023-01-11T07:13:16.589Z,172
2023-01-11T07:14:16.589Z,172
2023-01-11T07:15:16.589Z,172
2023-01-11T07:16:16.659Z,172
2023-01-11T07:17:16.593Z,172
2023-01-11T07:18:16.591Z,242
2023-01-11T07:19:16.585Z,242
2023-01-11T07:20:16.591Z,242
2023-01-11T07:21:16.629Z,242
2023-01-11T07:22:16.594Z,242
2023-01-11T07:23:16.593Z,393
2023-01-11T07:24:16.616Z,393
2023-01-11T07:25:16.600Z,393
2023-01-11T07:26:16.660Z,393
2023-01-11T07:27:16.597Z,393
2023-01-11T07:28:16.600Z,514
2023-01-11T07:29:16.609Z,514
2023-01-11T07:30:16.607Z,514
2023-01-11T07:31:16.624Z,514
2023-01-11T07:32:16.604Z,514
2023-01-11T07:33:16.611Z,504
2023-01-11T07:34:16.607Z,504
2023-01-11T07:35:16.610Z,504
2023-01-11T07:36:16.610Z,504
2023-01-11T07:37:28.751Z,504
2023-01-11T07:38:16.632Z,607
2023-01-11T07:39:16.610Z,607
2023-01-11T07:40:16.614Z,607
2023-01-11T07:41:16.617Z,607
2023-01-11T07:42:16.621Z,607
2023-01-11T07:43:16.626Z,720
2023-01-11T07:44:16.615Z,720
2023-01-11T07:45:16.687Z,720
2023-01-11T07:46:16.725Z,720
2023-01-11T07:47:16.618Z,720
2023-01-11T07:48:16.644Z,776
2023-01-11T07:49:16.617Z,776
2023-01-11T07:50:16.617Z,776
2023-01-11T07:51:16.627Z,776
2023-01-11T07:52:16.624Z,776
2023-01-11T07:53:16.647Z,776
2023-01-11T07:54:16.623Z,999
2023-01-11T07:55:16.624Z,999
2023-01-11T07:56:16.626Z,999
2023-01-11T07:57:16.630Z,999
2023-01-11T07:58:16.634Z,999
2023-01-11T07:59:16.630Z,1159
2023-01-11T08:00:16.634Z,1159
2023-01-11T08:01:16.642Z,1159
2023-01-11T08:02:16.670Z,1159
2023-01-11T08:03:16.740Z,1159
2023-01-11T08:04:16.637Z,1231
2023-01-11T08:05:16.647Z,1231
2023-01-11T08:06:16.646Z,1231
2023-01-11T08:07:16.650Z,1231
2023-01-11T08:08:16.641Z,1231
2023-01-11T08:09:16.672Z,1047
2023-01-11T08:10:16.643Z,1047
2023-01-11T08:11:16.663Z,1047
2023-01-11T08:12:16.650Z,1047
2023-01-11T08:13:16.651Z,1047
2023-01-11T08:14:16.649Z,927
2023-01-11T08:15:16.650Z,927
2023-01-11T08:16:16.694Z,927
2023-01-11T08:17:16.688Z,927
2023-01-11T08:18:16.657Z,927
2023-01-11T08:19:16.655Z,769
2023-01-11T08:20:16.658Z,769
2023-01-11T08:21:16.666Z,769
2023-01-11T08:22:16.662Z,769
2023-01-11T08:23:16.667Z,769
2023-01-11T08:24:16.666Z,723
2023-01-11T08:25:16.686Z,723
2023-01-11T08:26:16.663Z,723
2023-01-11T08:27:16.659Z,723
2023-01-11T08:28:16.676Z,723
2023-01-11T08:29:16.659Z,637
2023-01-11T08:30:16.660Z,637
2023-01-11T08:31:16.717Z,637
2023-01-11T08:32:16.663Z,637
2023-01-11T08:33:16.667Z,637
2023-01-11T08:34:16.674Z,611
2023-01-11T08:35:16.668Z,611
2023-01-11T08:36:16.675Z,611
2023-01-11T08:37:16.671Z,611
2023-01-11T08:38:16.675Z,611
2023-01-11T08:39:16.671Z,580
2023-01-11T08:40:16.673Z,580
2023-01-11T08:41:16.719Z,580
2023-01-11T08:42:16.673Z,580
2023-01-11T08:43:16.674Z,580
2023-01-11T08:44:19.507Z,528
2023-01-11T08:45:16.676Z,528
2023-01-11T08:46:16.689Z,528
2023-01-11T08:47:16.676Z,528
2023-01-11T08:48:16.677Z,528
2023-01-11T08:49:16.679Z,562
2023-01-11T08:50:16.683Z,562
2023-01-11T08:51:16.677Z,604
2023-01-11T08:52:16.687Z,606
2023-01-11T08:53:16.680Z,606
2023-01-11T08:54:16.685Z,606
2023-01-11T08:55:16.705Z,606
2023-01-11T08:56:16.687Z,683
2023-01-11T08:57:16.717Z,683
2023-01-11T08:58:16.690Z,683
2023-01-11T08:59:16.685Z,683
2023-01-11T09:00:16.692Z,683
2023-01-11T09:01:16.713Z,793
2023-01-11T09:02:16.692Z,793
2023-01-11T09:03:16.693Z,793
2023-01-11T09:04:24.518Z,793
2023-01-11T09:05:18.237Z,793
2023-01-11T09:06:16.700Z,1018
2023-01-11T09:07:16.699Z,1018
2023-01-11T09:08:16.697Z,1018
2023-01-11T09:09:16.709Z,1018
2023-01-11T09:10:16.699Z,1018
2023-01-11T09:11:16.703Z,1300
2023-01-11T09:12:16.726Z,1300
2023-01-11T09:13:16.736Z,1300
2023-01-11T09:14:16.707Z,1300
2023-01-11T09:15:16.710Z,1300
2023-01-11T09:16:16.737Z,1418
2023-01-11T09:17:16.706Z,1418
2023-01-11T09:18:16.709Z,1418
2023-01-11T09:19:16.711Z,1418
2023-01-11T09:20:16.715Z,1418
2023-01-11T09:21:16.713Z,1477
2023-01-11T09:22:16.714Z,1477
2023-01-11T09:23:16.714Z,1477
2023-01-11T09:24:16.722Z,1477
2023-01-11T09:25:16.717Z,1477
2023-01-11T09:26:16.713Z,1329
2023-01-11T09:27:16.887Z,1329
2023-01-11T09:28:16.715Z,1329
2023-01-11T09:29:16.753Z,1329
2023-01-11T09:30:16.731Z,1329
2023-01-11T09:31:16.749Z,1092
2023-01-11T09:32:16.720Z,1092
2023-01-11T09:33:16.723Z,1092
2023-01-11T09:34:16.719Z,1092
2023-01-11T09:35:16.727Z,1092
2023-01-11T09:36:16.724Z,913
2023-01-11T09:37:16.730Z,913
2023-01-11T09:38:16.725Z,913
2023-01-11T09:39:16.727Z,913
2023-01-11T09:40:16.727Z,913
2023-01-11T09:41:16.742Z,834
2023-01-11T09:42:16.728Z,834
2023-01-11T09:43:16.736Z,834
2023-01-11T09:44:16.790Z,834
2023-01-11T09:45:16.779Z,834
2023-01-11T09:46:16.738Z,806
2023-01-11T09:47:16.731Z,806
2023-01-11T09:48:16.733Z,806
2023-01-11T09:49:16.734Z,806
2023-01-11T09:50:16.733Z,806
2023-01-11T09:51:16.735Z,856
2023-01-11T09:52:16.739Z,856
2023-01-11T09:53:16.740Z,856
2023-01-11T09:54:16.737Z,856
2023-01-11T09:55:16.743Z,856
2023-01-11T09:56:16.743Z,1001
2023-01-11T09:57:16.743Z,1001
2023-01-11T09:58:16.755Z,1001
2023-01-11T09:59:16.747Z,1001
2023-01-11T10:00:16.747Z,1001
2023-01-11T10:01:16.879Z,1103
2023-01-11T10:02:16.749Z,1103
2023-01-11T10:03:16.748Z,1103
2023-01-11T10:04:16.750Z,1103
2023-01-11T10:05:16.802Z,1103
2023-01-11T10:06:16.753Z,1301
2023-01-11T10:07:16.749Z,1301
2023-01-11T10:18:21.711Z,1568
2023-01-11T10:18:24.385Z,1841
2023-01-11T10:18:24.394Z,1841
2023-01-11T10:18:24.931Z,1568
2023-01-11T10:18:42.450Z,1841
2023-01-11T10:19:35.801Z,1841
2023-01-11T10:20:16.918Z,1841
2023-01-11T10:21:16.763Z,1503
2023-01-11T10:22:16.766Z,1503
2023-01-11T10:23:16.765Z,1503
2023-01-11T10:24:16.768Z,1503
2023-01-11T10:25:16.807Z,1503
2023-01-11T10:26:16.763Z,1551
2023-01-11T10:27:16.828Z,1568
2023-01-11T10:28:16.766Z,1568
2023-01-11T10:29:16.767Z,1568
2023-01-11T10:30:16.771Z,1568
2023-01-11T10:31:16.806Z,1568
2023-01-11T10:32:16.775Z,1679
2023-01-11T10:33:16.801Z,1679
2023-01-11T10:34:16.771Z,1679
2023-01-11T10:35:16.774Z,1679
2023-01-11T10:36:16.774Z,1679
2023-01-11T10:37:16.774Z,1788
2023-01-11T10:38:16.777Z,1788
2023-01-11T10:39:16.780Z,1788
2023-01-11T10:40:16.775Z,1788
2023-01-11T10:41:16.776Z,1788
2023-01-11T10:42:16.778Z,1842
2023-01-11T10:43:16.892Z,1842
2023-01-11T10:44:16.785Z,1842
2023-01-11T10:45:16.776Z,1842
2023-01-11T10:46:16.811Z,1842
2023-01-11T10:47:16.778Z,2158
2023-01-11T10:48:16.780Z,2158
2023-01-11T10:49:16.801Z,2158
2023-01-11T10:50:16.782Z,2158
2023-01-11T10:51:16.782Z,2158
2023-01-11T10:52:16.778Z,2344
2023-01-11T10:53:16.788Z,2344
2023-01-11T10:54:16.888Z,2344
2023-01-11T10:55:16.784Z,2344
2023-01-11T10:56:16.778Z,2344
2023-01-11T10:57:16.781Z,2215
2023-01-11T10:58:16.786Z,2215
2023-01-11T10:59:16.786Z,2215
2023-01-11T11:00:16.796Z,2215
2023-01-11T11:01:16.829Z,2215
2023-01-11T11:02:16.844Z,2275
2023-01-11T11:03:16.787Z,2256
2023-01-11T11:04:16.785Z,2256
2023-01-11T11:05:16.815Z,2256
2023-01-11T11:06:16.789Z,2256
2023-01-11T11:07:16.793Z,2256
2023-01-11T11:08:16.788Z,2348
2023-01-11T11:09:16.791Z,2348
2023-01-11T11:10:16.787Z,2348
2023-01-11T11:11:16.786Z,2348
2023-01-11T11:12:16.792Z,2348
2023-01-11T11:13:16.791Z,2144
2023-01-11T11:14:16.791Z,2144
2023-01-11T11:15:16.789Z,2144
2023-01-11T11:16:16.813Z,2144
2023-01-11T11:17:16.791Z,2144
2023-01-11T11:18:16.786Z,2220
2023-01-11T11:19:16.794Z,2220
2023-01-11T11:20:16.789Z,2220
2023-01-11T11:21:16.822Z,2220
2023-01-11T11:22:16.788Z,2220
2023-01-11T11:23:16.801Z,2607
2023-01-11T11:24:16.791Z,2607
2023-01-11T11:25:16.793Z,2607
2023-01-11T11:26:16.790Z,2607
2023-01-11T11:27:16.880Z,2607
2023-01-11T11:28:16.792Z,4513
2023-01-11T11:29:16.792Z,4513
2023-01-11T11:30:16.799Z,4513
2023-01-11T11:31:16.817Z,4513
2023-01-11T11:32:16.792Z,4513
2023-01-11T11:33:16.825Z,3921
2023-01-11T11:34:16.794Z,3921
2023-01-11T11:35:16.792Z,3487
2023-01-11T11:36:16.792Z,3487
2023-01-11T11:37:16.838Z,3487
2023-01-11T11:38:16.790Z,3487
2023-01-11T11:39:16.812Z,3487
2023-01-11T11:40:16.818Z,3411
2023-01-11T11:41:16.793Z,3411
2023-01-11T11:42:16.795Z,3411
2023-01-11T11:43:16.791Z,3411
2023-01-11T11:44:16.803Z,3411
2023-01-11T11:45:16.798Z,3311
2023-01-11T11:46:20.360Z,3311
2023-01-11T11:47:16.803Z,3311
2023-01-11T11:48:16.794Z,3311
2023-01-11T11:49:16.803Z,3311
2023-01-11T11:50:18.801Z,3962
2023-01-11T11:51:16.796Z,3962
2023-01-11T11:52:16.799Z,3962
2023-01-11T11:53:16.822Z,3962
2023-01-11T11:54:16.794Z,3962
2023-01-11T11:55:16.793Z,3892
2023-01-11T11:56:16.793Z,3892
2023-01-11T11:57:16.802Z,3883
2023-01-11T11:58:16.800Z,3883
2023-01-11T11:59:16.795Z,3883
2023-01-11T12:00:16.841Z,3883
2023-01-11T12:01:16.795Z,3883
2023-01-11T12:02:16.862Z,7211
2023-01-11T12:03:16.794Z,7211
2023-01-11T12:04:16.798Z,7211
2023-01-11T12:05:16.858Z,7211
2023-01-11T12:06:16.796Z,7211
2023-01-11T12:07:16.792Z,3344
2023-01-11T12:08:16.794Z,3344
2023-01-11T12:09:16.841Z,3344
2023-01-11T12:10:16.842Z,3344
2023-01-11T12:11:16.794Z,3344
2023-01-11T12:12:16.801Z,2725
2023-01-11T12:13:16.804Z,2725
2023-01-11T12:14:16.801Z,2725
2023-01-11T12:15:16.798Z,2725
2023-01-11T12:16:16.798Z,2725
2023-01-11T12:17:16.797Z,2271
2023-01-11T12:18:16.804Z,2271
2023-01-11T12:19:16.798Z,2271
2023-01-11T12:20:16.798Z,2271
2023-01-11T12:21:16.805Z,2271
2023-01-11T12:22:16.816Z,2591
2023-01-11T12:23:16.798Z,2591
2023-01-11T12:24:16.796Z,2591
2023-01-11T12:25:16.823Z,2591
2023-01-11T12:26:16.810Z,2591
2023-01-11T12:27:16.853Z,2333
2023-01-11T12:28:16.799Z,2333
2023-01-11T12:29:16.800Z,2333
2023-01-11T12:30:19.898Z,2333
2023-01-11T12:31:16.831Z,2333
2023-01-11T12:32:16.800Z,1884
2023-01-11T12:33:16.801Z,1884
2023-01-11T12:34:16.798Z,1884
2023-01-11T12:35:16.813Z,1884
2023-01-11T12:36:16.800Z,1884
2023-01-11T12:37:16.800Z,1686
2023-01-11T12:38:16.802Z,1686
2023-01-11T12:39:16.796Z,1686
2023-01-11T12:40:16.801Z,1686
2023-01-11T12:41:16.841Z,1686
2023-01-11T12:42:16.803Z,1701
2023-01-11T12:43:16.800Z,1701
2023-01-11T12:44:16.851Z,1701
2023-01-11T12:45:16.805Z,1701
2023-01-11T12:46:16.843Z,1701
2023-01-11T12:47:18.022Z,1607
2023-01-11T12:48:16.803Z,1607
2023-01-11T12:49:16.808Z,1607
2023-01-11T12:50:16.806Z,1607
2023-01-11T12:51:16.806Z,1709
2023-01-11T12:52:16.802Z,1709
2023-01-11T12:53:16.811Z,1709
2023-01-11T12:54:16.810Z,1709
2023-01-11T12:55:16.833Z,1709
2023-01-11T12:56:16.812Z,2225
2023-01-11T12:57:16.838Z,2225
2023-01-11T12:58:16.814Z,2225
2023-01-11T12:59:16.820Z,2225
2023-01-11T13:00:16.841Z,2225
2023-01-11T13:01:16.867Z,1859
2023-01-11T13:02:16.861Z,1859
2023-01-11T13:03:16.820Z,1859
2023-01-11T13:04:16.822Z,1859
2023-01-11T13:05:16.827Z,1859
2023-01-11T13:06:16.828Z,1909
2023-01-11T13:07:16.825Z,1909
2023-01-11T13:08:16.821Z,1909
2023-01-11T13:09:16.897Z,1909
2023-01-11T13:10:16.826Z,1909
2023-01-11T13:11:16.827Z,1822
2023-01-11T13:12:16.834Z,1822
2023-01-11T13:13:16.863Z,1822
2023-01-11T13:14:16.840Z,1822
2023-01-11T13:15:16.828Z,1822
2023-01-11T13:16:16.896Z,1570
2023-01-11T13:17:16.838Z,1570
2023-01-11T13:18:16.835Z,1570
2023-01-11T13:19:16.839Z,1570
2023-01-11T13:20:16.856Z,1570
2023-01-11T13:21:16.841Z,1454
2023-01-11T13:22:16.845Z,1454
2023-01-11T13:23:16.845Z,1454
2023-01-11T13:24:16.859Z,1454
2023-01-11T13:25:16.878Z,1454
2023-01-11T13:26:16.845Z,1294
2023-01-11T13:27:16.880Z,1294
2023-01-11T13:28:23.845Z,1294
2023-01-11T13:29:16.911Z,1294
2023-01-11T13:30:16.856Z,1294
2023-01-11T13:31:16.896Z,1152
2023-01-11T13:32:16.855Z,1152
2023-01-11T13:33:16.849Z,1152
2023-01-11T13:34:16.871Z,1152
2023-01-11T13:35:16.854Z,1152
2023-01-11T13:36:23.102Z,1108
2023-01-11T13:37:16.861Z,1108
2023-01-11T13:38:16.859Z,1108
2023-01-11T13:39:16.862Z,1108
2023-01-11T13:40:16.865Z,1108
2023-01-11T13:41:16.870Z,1024
2023-01-11T13:42:16.871Z,1024
2023-01-11T13:43:16.872Z,1024
2023-01-11T13:44:16.869Z,1024
2023-01-11T13:45:16.921Z,1024
2023-01-11T13:46:17.007Z,1049
2023-01-11T13:47:16.910Z,1049
2023-01-11T13:48:16.876Z,1049
2023-01-11T13:49:16.875Z,1049
2023-01-11T13:50:16.873Z,1047
2023-01-11T13:51:16.879Z,1047
2023-01-11T13:52:16.879Z,1047
2023-01-11T13:53:16.884Z,1047
2023-01-11T13:54:16.892Z,1047
2023-01-11T13:55:24.807Z,1049
2023-01-11T13:56:16.876Z,1053
2023-01-11T13:57:16.882Z,1053
2023-01-11T13:58:16.882Z,1053
2023-01-11T13:59:16.880Z,1053
2023-01-11T14:00:16.888Z,1053
2023-01-11T14:01:16.934Z,1115
2023-01-11T14:02:16.894Z,1115
2023-01-11T14:03:16.909Z,1115
2023-01-11T14:04:16.889Z,1115
2023-01-11T14:05:16.895Z,1115
2023-01-11T14:06:16.891Z,1096
2023-01-11T14:07:16.901Z,1096
2023-01-11T14:08:16.900Z,1096
2023-01-11T14:09:16.899Z,1096
2023-01-11T14:10:16.900Z,1096